Time,TemperatureF,DewpointF,PressureIn,WindDirection,WindDirectionDegrees,WindSpeedMPH,WindSpeedGustMPH,Humidity,HourlyPrecipIn,Conditions,Clouds,dailyrainin,SoftwareType,DateUTC
2013-04-30 00:00:00,45.6,43.4,29.71,ESE,104,8.0,11.0,92,0.00,,SCT250,0.00,VWS V14.01,2013-04-30 05:00:00,
2013-04-30 00:01:00,45.7,43.5,29.71,East,94,8.0,11.0,92,0.00,,SCT250,0.00,VWS V14.01,2013-04-30 05:01:00,
2013-04-30 00:05:00,45.9,43.7,29.71,ESE,110,4.0,10.0,92,0.00,,SCT250,0.00,VWS V14.01,2013-04-30 05:05:00,
2013-04-30 00:06:00,46.0,43.8,29.70,ESE,111,5.0,12.0,92,0.00,,SCT250,0.00,VWS V14.01,2013-04-30 05:06:00,
2013-04-30 00:10:00,46.1,43.9,29.71,ESE,109,7.0,11.0,92,0.00,,SCT250,0.00,VWS V14.01,2013-04-30 05:10:00,
2013-04-30 00:11:00,46.2,44.0,29.71,ESE,113,4.0,10.0,92,0.00,,SCT250,0.00,VWS V14.01,2013-04-30 05:11:00,
2013-04-30 00:15:00,46.2,44.0,29.71,East,95,2.0,8.0,92,0.00,,SCT250,0.00,VWS V14.01,2013-04-30 05:15:00,
2013-04-30 00:16:00,46.3,44.1,29.71,ESE,118,0.0,8.0,92,0.00,,SCT250,0.00,VWS V14.01,2013-04-30 05:16:00,
2013-04-30 00:20:00,46.3,44.1,29.72,SE,128,5.0,8.0,92,0.00,,SCT250,0.00,VWS V14.01,2013-04-30 05:20:00,
2013-04-30 00:21:00,46.4,44.2,29.72,ESE,119,2.0,10.0,92,0.00,,SCT250,0.00,VWS V14.01,2013-04-30 05:21:00,
2013-04-30 00:25:00,46.4,44.2,29.71,ESE,117,8.0,10.0,92,0.00,,SCT250,0.00,VWS V14.01,2013-04-30 05:25:00,
2013-04-30 00:26:00,46.5,44.3,29.71,East,94,6.0,10.0,92,0.00,,SCT250,0.00,VWS V14.01,2013-04-30 05:26:00,
2013-04-30 00:30:00,46.5,44.3,29.71,ESE,107,7.0,10.0,92,0.00,,SCT250,0.00,VWS V14.01,2013-04-30 05:30:00,
2013-04-30 00:31:00,46.7,44.5,29.71,ESE,123,5.0,10.0,92,0.00,,SCT250,0.00,VWS V14.01,2013-04-30 05:31:00,
2013-04-30 00:35:00,46.8,44.6,29.71,ESE,104,2.0,10.0,92,0.00,,SCT250,0.00,VWS V14.01,2013-04-30 05:35:00,
2013-04-30 00:36:00,46.9,44.7,29.71,SE,124,5.0,10.0,92,0.00,,SCT250,0.00,VWS V14.01,2013-04-30 05:36:00,
2013-04-30 00:40:00,46.9,44.7,29.71,SE,136,7.0,10.0,92,0.00,,SCT250,0.00,VWS V14.01,2013-04-30 05:40:00,
2013-04-30 00:41:00,47.0,44.8,29.71,East,101,7.0,12.0,92,0.00,,SCT250,0.00,VWS V14.01,2013-04-30 05:41:00,
2013-04-30 00:45:00,46.9,44.7,29.70,ESE,120,7.0,12.0,92,0.00,,SCT250,0.00,VWS V14.01,2013-04-30 05:45:00,
2013-04-30 00:46:00,47.0,44.8,29.71,ESE,120,11.0,12.0,92,0.00,,SCT250,0.00,VWS V14.01,2013-04-30 05:46:00,
2013-04-30 00:50:00,46.9,44.7,29.71,ESE,120,13.0,13.0,92,0.00,,SCT250,0.00,VWS V14.01,2013-04-30 05:50:00,
2013-04-30 00:51:00,46.9,44.7,29.70,SE,130,6.0,13.0,92,0.00,,SCT250,0.00,VWS V14.01,2013-04-30 05:51:00,
2013-04-30 00:55:00,46.8,44.6,29.70,SE,130,5.0,14.0,92,0.00,,SCT250,0.00,VWS V14.01,2013-04-30 05:55:00,
2013-04-30 00:57:00,46.7,44.5,29.70,SE,133,10.0,14.0,92,0.00,,SCT250,0.00,VWS V14.01,2013-04-30 05:57:00,
2013-04-30 01:00:00,46.6,44.4,29.70,SE,127,8.0,13.0,92,0.00,,SCT250,0.00,VWS V14.01,2013-04-30 06:00:00,
2013-04-30 01:02:00,46.7,44.5,29.70,ESE,118,3.0,14.0,92,0.00,,BKN160,0.00,VWS V14.01,2013-04-30 06:02:00,
2013-04-30 01:05:00,46.8,44.9,29.70,SE,144,9.0,14.0,93,0.00,,SCT250,0.00,VWS V14.01,2013-04-30 06:05:00,
2013-04-30 01:07:00,47.2,45.3,29.70,SE,135,8.0,14.0,93,0.00,,BKN160,0.00,VWS V14.01,2013-04-30 06:07:00,
2013-04-30 01:10:00,47.3,45.4,29.70,SE,124,9.0,14.0,93,0.00,,SCT250,0.00,VWS V14.01,2013-04-30 06:10:00,
2013-04-30 01:12:00,47.5,45.3,29.70,SE,140,8.0,12.0,92,0.00,,BKN160,0.00,VWS V14.01,2013-04-30 06:12:00,
2013-04-30 01:15:00,47.5,45.3,29.70,SE,137,8.0,13.0,92,0.00,,SCT250,0.00,VWS V14.01,2013-04-30 06:15:00,
2013-04-30 01:17:00,47.5,45.3,29.70,SE,126,8.0,14.0,92,0.00,,BKN160,0.00,VWS V14.01,2013-04-30 06:17:00,
2013-04-30 01:20:00,47.5,45.3,29.70,SE,141,8.0,14.0,92,0.00,,SCT250,0.00,VWS V14.01,2013-04-30 06:20:00,
2013-04-30 01:22:00,47.5,45.3,29.70,SE,137,8.0,13.0,92,0.00,,BKN160,0.00,VWS V14.01,2013-04-30 06:22:00,
2013-04-30 01:25:00,47.5,45.3,29.70,ESE,123,11.0,15.0,92,0.00,,SCT250,0.00,VWS V14.01,2013-04-30 06:25:00,
2013-04-30 01:27:00,47.5,45.3,29.69,SE,139,11.0,15.0,92,0.00,,BKN160,0.00,VWS V14.01,2013-04-30 06:27:00,
2013-04-30 01:30:00,47.5,45.3,29.69,SE,134,4.0,15.0,92,0.00,,SCT250,0.00,VWS V14.01,2013-04-30 06:30:00,
2013-04-30 01:32:00,47.7,45.5,29.69,SE,141,5.0,12.0,92,0.00,,BKN160,0.00,VWS V14.01,2013-04-30 06:32:00,
2013-04-30 01:35:00,47.7,45.5,29.69,SE,132,7.0,12.0,92,0.00,,SCT250,0.00,VWS V14.01,2013-04-30 06:35:00,
2013-04-30 01:37:00,47.6,45.4,29.69,SE,136,9.0,15.0,92,0.00,,BKN160,0.00,VWS V14.01,2013-04-30 06:37:00,
2013-04-30 01:40:00,47.5,45.3,29.69,ESE,122,10.0,15.0,92,0.00,,SCT250,0.00,VWS V14.01,2013-04-30 06:40:00,
2013-04-30 01:42:00,47.3,45.1,29.69,SE,134,13.0,13.0,92,0.00,,BKN160,0.00,VWS V14.01,2013-04-30 06:42:00,
2013-04-30 01:45:00,47.3,45.1,29.69,SE,128,10.0,13.0,92,0.00,,SCT250,0.00,VWS V14.01,2013-04-30 06:45:00,
2013-04-30 01:47:00,47.2,45.0,29.69,North,360,4.0,13.0,92,0.00,,BKN160,0.00,VWS V14.01,2013-04-30 06:47:00,
2013-04-30 01:50:00,47.2,45.0,29.69,ESE,122,12.0,13.0,92,0.00,,SCT250,0.00,VWS V14.01,2013-04-30 06:50:00,
2013-04-30 01:52:00,46.9,44.7,29.69,ESE,115,9.0,12.0,92,0.00,,BKN160,0.00,VWS V14.01,2013-04-30 06:52:00,
2013-04-30 01:55:00,46.9,44.7,29.69,SE,140,5.0,13.0,92,0.00,,SCT250,0.00,VWS V14.01,2013-04-30 06:55:00,
2013-04-30 01:57:00,46.8,44.6,29.69,SE,124,11.0,14.0,92,0.00,,BKN160,0.00,VWS V14.01,2013-04-30 06:57:00,
2013-04-30 02:00:00,46.8,44.6,29.69,SE,130,11.0,14.0,92,0.00,,SCT250,0.00,VWS V14.01,2013-04-30 07:00:00,
2013-04-30 02:02:00,46.8,44.9,29.69,SE,127,9.0,12.0,93,0.00,,FEW250,0.00,VWS V14.01,2013-04-30 07:02:00,
2013-04-30 02:05:00,46.8,44.9,29.69,SE,130,8.0,12.0,93,0.00,,SCT250,0.00,VWS V14.01,2013-04-30 07:05:00,
2013-04-30 02:07:00,46.7,44.8,29.68,SSE,148,5.0,10.0,93,0.00,,FEW250,0.00,VWS V14.01,2013-04-30 07:07:00,
2013-04-30 02:10:00,46.7,44.8,29.68,SE,131,9.0,12.0,93,0.00,,SCT250,0.00,VWS V14.01,2013-04-30 07:10:00,
2013-04-30 02:13:00,46.5,44.6,29.68,SE,131,6.0,12.0,93,0.00,,FEW250,0.00,VWS V14.01,2013-04-30 07:13:00,
2013-04-30 02:15:00,46.5,44.6,29.68,SE,135,11.0,11.0,93,0.00,,SCT250,0.00,VWS V14.01,2013-04-30 07:15:00,
2013-04-30 02:18:00,46.4,44.5,29.68,SE,127,7.0,11.0,93,0.00,,FEW250,0.00,VWS V14.01,2013-04-30 07:18:00,
2013-04-30 02:20:00,46.4,44.5,29.68,SE,146,0.0,11.0,93,0.00,,SCT250,0.00,VWS V14.01,2013-04-30 07:20:00,
2013-04-30 02:23:00,46.3,44.4,29.68,SE,134,9.0,11.0,93,0.00,,FEW250,0.00,VWS V14.01,2013-04-30 07:23:00,
2013-04-30 02:25:00,46.3,44.4,29.68,SE,127,8.0,12.0,93,0.00,,SCT250,0.00,VWS V14.01,2013-04-30 07:25:00,
2013-04-30 02:28:00,46.2,44.3,29.68,SE,139,0.0,12.0,93,0.00,,FEW250,0.00,VWS V14.01,2013-04-30 07:28:00,
2013-04-30 02:30:00,46.2,44.3,29.68,SE,141,8.0,13.0,93,0.00,,SCT250,0.00,VWS V14.01,2013-04-30 07:30:00,
2013-04-30 02:33:00,46.3,44.7,29.67,SSE,148,5.0,13.0,94,0.00,,FEW250,0.00,VWS V14.01,2013-04-30 07:33:00,
2013-04-30 02:35:00,46.4,44.8,29.67,ESE,109,7.0,11.0,94,0.00,,SCT250,0.00,VWS V14.01,2013-04-30 07:35:00,
2013-04-30 02:38:00,46.7,45.1,29.67,SE,133,4.0,10.0,94,0.00,,FEW250,0.00,VWS V14.01,2013-04-30 07:38:00,
2013-04-30 02:40:00,46.7,45.1,29.67,SE,141,5.0,10.0,94,0.00,,SCT250,0.00,VWS V14.01,2013-04-30 07:40:00,
2013-04-30 02:43:00,47.2,45.6,29.67,SSE,156,3.0,9.0,94,0.00,,FEW250,0.00,VWS V14.01,2013-04-30 07:43:00,
2013-04-30 02:45:00,47.2,45.6,29.67,SE,136,3.0,9.0,94,0.00,,SCT250,0.00,VWS V14.01,2013-04-30 07:45:00,
2013-04-30 02:48:00,47.5,45.9,29.67,SE,128,6.0,9.0,94,0.00,,FEW250,0.00,VWS V14.01,2013-04-30 07:48:00,
2013-04-30 02:50:00,47.6,46.0,29.67,SE,137,4.0,8.0,94,0.00,,SCT250,0.00,VWS V14.01,2013-04-30 07:50:00,
2013-04-30 02:53:00,48.0,46.4,29.67,SE,136,0.0,8.0,94,0.00,,FEW250,0.00,VWS V14.01,2013-04-30 07:53:00,
2013-04-30 02:55:00,48.0,46.4,29.67,SE,133,0.0,8.0,94,0.00,,SCT250,0.00,VWS V14.01,2013-04-30 07:55:00,
2013-04-30 02:58:00,48.3,46.7,29.67,SE,124,5.0,8.0,94,0.00,,FEW250,0.00,VWS V14.01,2013-04-30 07:58:00,
2013-04-30 03:00:00,48.3,46.4,29.67,SE,124,2.0,6.0,93,0.00,,SCT250,0.00,VWS V14.01,2013-04-30 08:00:00,
2013-04-30 03:03:00,48.4,46.5,29.67,ESE,120,0.0,10.0,93,0.00,,,0.00,VWS V14.01,2013-04-30 08:03:00,
2013-04-30 03:05:00,48.4,46.5,29.67,ESE,121,1.0,10.0,93,0.00,,SCT250,0.00,VWS V14.01,2013-04-30 08:05:00,
2013-04-30 03:08:00,48.7,46.8,29.67,SE,125,6.0,9.0,93,0.00,,,0.00,VWS V14.01,2013-04-30 08:08:00,
2013-04-30 03:10:00,48.7,46.8,29.67,SE,132,6.0,9.0,93,0.00,,SCT250,0.00,VWS V14.01,2013-04-30 08:10:00,
2013-04-30 03:13:00,48.8,46.9,29.67,SE,138,0.0,8.0,93,0.00,,,0.00,VWS V14.01,2013-04-30 08:13:00,
2013-04-30 03:15:00,48.8,46.9,29.67,SE,133,0.0,8.0,93,0.00,,SCT250,0.00,VWS V14.01,2013-04-30 08:15:00,
2013-04-30 03:18:00,49.2,47.3,29.67,SE,137,0.0,9.0,93,0.00,,,0.00,VWS V14.01,2013-04-30 08:18:00,
2013-04-30 03:20:00,49.2,47.3,29.67,SE,140,0.0,9.0,93,0.00,,SCT250,0.00,VWS V14.01,2013-04-30 08:20:00,
2013-04-30 03:23:00,49.6,47.4,29.67,SE,143,3.0,7.0,92,0.00,,,0.00,VWS V14.01,2013-04-30 08:23:00,
2013-04-30 03:25:00,49.6,47.4,29.67,SE,138,3.0,7.0,92,0.00,,SCT250,0.00,VWS V14.01,2013-04-30 08:25:00,
2013-04-30 03:29:00,49.4,47.2,29.67,SE,142,0.0,4.0,92,0.00,,,0.00,VWS V14.01,2013-04-30 08:29:00,
2013-04-30 03:30:00,49.4,47.2,29.67,SE,142,0.0,4.0,92,0.00,,SCT250,0.00,VWS V14.01,2013-04-30 08:30:00,
2013-04-30 03:34:00,49.4,46.9,29.67,SE,132,0.0,7.0,91,0.00,,,0.00,VWS V14.01,2013-04-30 08:34:00,
2013-04-30 03:35:00,49.4,46.9,29.67,SE,136,4.0,7.0,91,0.00,,SCT250,0.00,VWS V14.01,2013-04-30 08:35:00,
2013-04-30 03:39:00,49.4,47.2,29.67,ESE,123,4.0,7.0,92,0.00,,,0.00,VWS V14.01,2013-04-30 08:39:00,
2013-04-30 03:40:00,49.4,47.2,29.67,ESE,123,4.0,7.0,92,0.00,,SCT250,0.00,VWS V14.01,2013-04-30 08:40:00,
2013-04-30 03:44:00,48.7,46.2,29.67,SE,135,9.0,9.0,91,0.00,,,0.00,VWS V14.01,2013-04-30 08:44:00,
2013-04-30 03:45:00,48.7,46.2,29.67,SE,135,9.0,9.0,91,0.00,,SCT250,0.00,VWS V14.01,2013-04-30 08:45:00,
2013-04-30 03:49:00,48.5,46.3,29.67,ESE,121,3.0,9.0,92,0.00,,,0.00,VWS V14.01,2013-04-30 08:49:00,
2013-04-30 03:50:00,48.5,46.3,29.67,ESE,121,3.0,9.0,92,0.00,,SCT250,0.00,VWS V14.01,2013-04-30 08:50:00,
2013-04-30 03:54:00,48.2,46.0,29.67,SSE,148,5.0,10.0,92,0.00,,,0.00,VWS V14.01,2013-04-30 08:54:00,
2013-04-30 03:55:00,48.2,46.0,29.67,SSE,148,5.0,10.0,92,0.00,,SCT250,0.00,VWS V14.01,2013-04-30 08:55:00,
2013-04-30 03:59:00,47.9,45.7,29.67,SE,128,2.0,8.0,92,0.00,,,0.00,VWS V14.01,2013-04-30 08:59:00,
2013-04-30 04:00:00,47.9,45.7,29.67,SE,128,2.0,8.0,92,0.00,,SCT250,0.00,VWS V14.01,2013-04-30 09:00:00,
2013-04-30 04:04:00,47.5,45.3,29.67,SE,136,3.0,8.0,92,0.00,,SCT180,0.00,VWS V14.01,2013-04-30 09:04:00,
2013-04-30 04:05:00,47.5,45.3,29.67,SE,128,0.0,9.0,92,0.00,,SCT250,0.00,VWS V14.01,2013-04-30 09:05:00,
2013-04-30 04:09:00,47.4,45.5,29.67,SE,138,7.0,10.0,93,0.00,,SCT180,0.00,VWS V14.01,2013-04-30 09:09:00,
2013-04-30 04:10:00,47.4,45.5,29.67,ESE,119,9.0,10.0,93,0.00,,SCT250,0.00,VWS V14.01,2013-04-30 09:10:00,
2013-04-30 04:14:00,47.1,45.2,29.67,SE,135,6.0,9.0,93,0.00,,SCT180,0.00,VWS V14.01,2013-04-30 09:14:00,
2013-04-30 04:15:00,47.1,45.2,29.67,SE,138,4.0,9.0,93,0.00,,SCT250,0.00,VWS V14.01,2013-04-30 09:15:00,
2013-04-30 04:19:00,47.2,45.6,29.67,SE,146,0.0,9.0,94,0.00,,SCT180,0.00,VWS V14.01,2013-04-30 09:19:00,
2013-04-30 04:20:00,47.1,45.5,29.67,SSE,148,0.0,9.0,94,0.00,,SCT250,0.00,VWS V14.01,2013-04-30 09:20:00,
2013-04-30 04:24:00,47.2,45.3,29.67,SE,130,4.0,8.0,93,0.00,,SCT180,0.00,VWS V14.01,2013-04-30 09:24:00,
2013-04-30 04:25:00,47.2,45.6,29.67,SE,138,0.0,8.0,94,0.00,,SCT250,0.00,VWS V14.01,2013-04-30 09:25:00,
2013-04-30 04:29:00,47.0,45.4,29.66,SE,132,0.0,7.0,94,0.00,,SCT180,0.00,VWS V14.01,2013-04-30 09:29:00,
2013-04-30 04:30:00,47.0,45.1,29.66,SE,132,0.0,7.0,93,0.00,,SCT250,0.00,VWS V14.01,2013-04-30 09:30:00,
2013-04-30 04:34:00,47.2,45.6,29.67,SE,134,0.0,0.0,94,0.00,,SCT180,0.00,VWS V14.01,2013-04-30 09:34:00,
2013-04-30 04:35:00,47.1,45.5,29.67,SE,134,0.0,1.0,94,0.00,,SCT250,0.00,VWS V14.01,2013-04-30 09:35:00,
2013-04-30 04:39:00,47.3,45.7,29.67,SE,134,0.0,0.0,94,0.00,,SCT180,0.00,VWS V14.01,2013-04-30 09:39:00,
2013-04-30 04:40:00,47.3,45.7,29.67,SE,134,0.0,0.0,94,0.00,,SCT250,0.00,VWS V14.01,2013-04-30 09:40:00,
2013-04-30 04:45:00,47.7,46.1,29.67,SE,134,0.0,0.0,94,0.00,,SCT180,0.00,VWS V14.01,2013-04-30 09:45:00,
2013-04-30 04:50:00,48.3,46.9,29.66,SE,134,0.0,0.0,95,0.00,,SCT180,0.00,VWS V14.01,2013-04-30 09:50:00,
2013-04-30 04:55:00,49.2,47.8,29.67,North,360,3.0,8.0,95,0.00,,SCT180,0.00,VWS V14.01,2013-04-30 09:55:00,
2013-04-30 05:00:00,50.0,48.3,29.67,SSW,204,0.0,7.0,94,0.00,,SCT180,0.00,VWS V14.01,2013-04-30 10:00:00,
2013-04-30 05:05:00,50.6,48.7,29.66,North,360,5.0,6.0,93,0.00,,BKN180,0.00,VWS V14.01,2013-04-30 10:05:00,
2013-04-30 05:10:00,51.1,48.9,29.66,North,360,0.0,4.0,92,0.00,,BKN180,0.00,VWS V14.01,2013-04-30 10:10:00,
2013-04-30 05:15:00,51.5,49.3,29.66,SSW,209,0.0,0.0,92,0.00,,BKN180,0.00,VWS V14.01,2013-04-30 10:15:00,
2013-04-30 05:20:00,51.6,49.1,29.66,SSW,209,0.0,0.0,91,0.00,,BKN180,0.00,VWS V14.01,2013-04-30 10:20:00,
2013-04-30 05:25:00,51.9,49.4,29.66,SSW,209,0.0,0.0,91,0.00,,BKN180,0.00,VWS V14.01,2013-04-30 10:25:00,
2013-04-30 05:30:00,52.1,49.6,29.67,SSW,209,0.0,0.0,91,0.00,,BKN180,0.00,VWS V14.01,2013-04-30 10:30:00,
2013-04-30 05:35:00,52.2,49.7,29.67,SSW,209,0.0,0.0,91,0.00,,BKN180,0.00,VWS V14.01,2013-04-30 10:35:00,
2013-04-30 05:40:00,52.5,49.7,29.68,SSW,209,0.0,0.0,90,0.00,,BKN180,0.00,VWS V14.01,2013-04-30 10:40:00,
2013-04-30 05:45:00,52.6,49.8,29.68,SSW,209,0.0,0.0,90,0.00,,BKN180,0.00,VWS V14.01,2013-04-30 10:45:00,
2013-04-30 05:50:00,52.4,49.3,29.69,SSW,209,0.0,0.0,89,0.00,,BKN180,0.00,VWS V14.01,2013-04-30 10:50:00,
2013-04-30 05:55:00,51.9,48.8,29.69,NNW,346,7.0,7.0,89,0.00,,SCT250,0.00,VWS V14.01,2013-04-30 10:55:00,
2013-04-30 05:56:00,51.3,47.9,29.69,NNW,342,5.0,7.0,88,0.00,,BKN180,0.00,VWS V14.01,2013-04-30 10:56:00,
2013-04-30 06:00:00,50.6,47.5,29.69,NNW,336,7.0,7.0,89,0.00,,SCT250,0.00,VWS V14.01,2013-04-30 11:00:00,
2013-04-30 06:01:00,50.4,47.6,29.69,NNW,343,3.0,8.0,90,0.00,,BKN180,0.00,VWS V14.01,2013-04-30 11:01:00,
2013-04-30 06:05:00,50.2,47.7,29.69,NNE,17,2.0,8.0,91,0.00,,SCT250,0.00,VWS V14.01,2013-04-30 11:05:00,
2013-04-30 06:06:00,50.2,47.7,29.70,NNE,12,1.0,8.0,91,0.00,,BKN180,0.00,VWS V14.01,2013-04-30 11:06:00,
2013-04-30 06:10:00,50.5,48.3,29.70,North,355,1.0,4.0,92,0.00,,SCT250,0.00,VWS V14.01,2013-04-30 11:10:00,
2013-04-30 06:11:00,50.9,48.7,29.70,North,355,0.0,4.0,92,0.00,,BKN180,0.00,VWS V14.01,2013-04-30 11:11:00,
2013-04-30 06:15:00,51.3,49.1,29.70,North,355,0.0,2.0,92,0.00,,SCT250,0.00,VWS V14.01,2013-04-30 11:15:00,
2013-04-30 06:16:00,51.6,49.4,29.70,North,355,0.0,0.0,92,0.00,,BKN180,0.00,VWS V14.01,2013-04-30 11:16:00,
2013-04-30 06:20:00,52.1,50.1,29.70,North,350,0.0,0.0,93,0.00,,SCT250,0.00,VWS V14.01,2013-04-30 11:20:00,
2013-04-30 06:21:00,52.8,50.8,29.70,WNW,283,2.0,4.0,93,0.00,,BKN180,0.00,VWS V14.01,2013-04-30 11:21:00,
2013-04-30 06:25:00,53.8,51.8,29.70,West,277,3.0,5.0,93,0.00,,SCT250,0.00,VWS V14.01,2013-04-30 11:25:00,
2013-04-30 06:26:00,54.6,52.6,29.70,West,274,0.0,5.0,93,0.00,,BKN180,0.00,VWS V14.01,2013-04-30 11:26:00,
2013-04-30 06:30:00,55.3,53.0,29.70,West,274,0.0,4.0,92,0.00,,SCT250,0.00,VWS V14.01,2013-04-30 11:30:00,
2013-04-30 06:31:00,55.5,52.9,29.70,West,274,0.0,0.0,91,0.00,,BKN180,0.00,VWS V14.01,2013-04-30 11:31:00,
2013-04-30 06:35:00,56.1,53.5,29.70,West,273,0.0,0.0,91,0.00,,SCT250,0.00,VWS V14.01,2013-04-30 11:35:00,
2013-04-30 06:36:00,56.6,54.0,29.70,West,270,0.0,5.0,91,0.00,,BKN180,0.00,VWS V14.01,2013-04-30 11:36:00,
2013-04-30 06:40:00,57.0,54.1,29.70,WSW,258,0.0,5.0,90,0.00,,SCT250,0.00,VWS V14.01,2013-04-30 11:40:00,
2013-04-30 06:41:00,57.4,54.5,29.70,South,182,3.0,5.0,90,0.00,,BKN180,0.00,VWS V14.01,2013-04-30 11:41:00,
2013-04-30 06:45:00,57.8,54.9,29.70,North,360,3.0,5.0,90,0.00,,SCT250,0.00,VWS V14.01,2013-04-30 11:45:00,
2013-04-30 06:46:00,58.7,56.1,29.70,North,360,5.0,12.0,91,0.00,,BKN180,0.00,VWS V14.01,2013-04-30 11:46:00,
2013-04-30 06:50:00,59.4,56.5,29.70,North,360,4.0,12.0,90,0.00,,SCT250,0.00,VWS V14.01,2013-04-30 11:50:00,
2013-04-30 06:51:00,60.1,57.2,29.70,North,360,1.0,8.0,90,0.00,,BKN180,0.00,VWS V14.01,2013-04-30 11:51:00,
2013-04-30 06:55:00,60.9,57.6,29.70,North,360,8.0,12.0,89,0.00,,SCT250,0.00,VWS V14.01,2013-04-30 11:55:00,
2013-04-30 06:56:00,61.6,58.0,29.70,North,360,6.0,12.0,88,0.00,,BKN180,0.00,VWS V14.01,2013-04-30 11:56:00,
2013-04-30 07:00:00,62.0,58.1,29.71,SSW,199,5.0,12.0,87,0.00,,SCT250,0.00,VWS V14.01,2013-04-30 12:00:00,
2013-04-30 07:01:00,62.3,58.1,29.70,North,360,7.0,12.0,86,0.00,,OVC240,0.00,VWS V14.01,2013-04-30 12:01:00,
2013-04-30 07:05:00,62.7,58.5,29.70,North,360,7.0,15.0,86,0.00,,SCT250,0.00,VWS V14.01,2013-04-30 12:05:00,
2013-04-30 07:06:00,62.8,58.2,29.70,SSW,196,7.0,14.0,85,0.00,,OVC240,0.00,VWS V14.01,2013-04-30 12:06:00,
2013-04-30 07:10:00,62.7,57.5,29.70,North,360,5.0,12.0,83,0.00,,SCT250,0.00,VWS V14.01,2013-04-30 12:10:00,
2013-04-30 07:12:00,62.8,58.2,29.70,North,360,9.0,11.0,85,0.00,,OVC240,0.00,VWS V14.01,2013-04-30 12:12:00,
2013-04-30 07:15:00,63.0,58.4,29.70,North,360,8.0,12.0,85,0.00,,SCT250,0.00,VWS V14.01,2013-04-30 12:15:00,
2013-04-30 07:17:00,63.2,58.3,29.71,SSW,202,6.0,12.0,84,0.00,,OVC240,0.00,VWS V14.01,2013-04-30 12:17:00,
2013-04-30 07:20:00,63.2,58.3,29.70,South,169,8.0,13.0,84,0.00,,SCT250,0.00,VWS V14.01,2013-04-30 12:20:00,
2013-04-30 07:22:00,63.3,58.4,29.70,North,360,5.0,14.0,84,0.00,,OVC240,0.00,VWS V14.01,2013-04-30 12:22:00,
2013-04-30 07:25:00,63.3,58.4,29.70,North,360,9.0,13.0,84,0.00,,SCT250,0.00,VWS V14.01,2013-04-30 12:25:00,
2013-04-30 07:27:00,63.3,58.4,29.69,North,360,9.0,12.0,84,0.00,,OVC240,0.00,VWS V14.01,2013-04-30 12:27:00,
2013-04-30 07:30:00,63.4,58.5,29.69,North,360,11.0,14.0,84,0.00,,SCT250,0.00,VWS V14.01,2013-04-30 12:30:00,
2013-04-30 07:32:00,63.4,58.5,29.68,SSW,196,3.0,15.0,84,0.00,,OVC240,0.00,VWS V14.01,2013-04-30 12:32:00,
2013-04-30 07:35:00,63.5,58.6,29.68,North,360,4.0,13.0,84,0.00,,SCT250,0.00,VWS V14.01,2013-04-30 12:35:00,
2013-04-30 07:37:00,63.6,58.3,29.68,SSE,168,5.0,13.0,83,0.00,,OVC240,0.00,VWS V14.01,2013-04-30 12:37:00,
2013-04-30 07:40:00,63.6,58.7,29.67,North,360,7.0,13.0,84,0.00,,SCT250,0.00,VWS V14.01,2013-04-30 12:40:00,
2013-04-30 07:42:00,63.6,58.3,29.67,North,360,3.0,14.0,83,0.00,,OVC240,0.00,VWS V14.01,2013-04-30 12:42:00,
2013-04-30 07:45:00,63.6,58.3,29.67,North,360,9.0,14.0,83,0.00,,SCT250,0.00,VWS V14.01,2013-04-30 12:45:00,
2013-04-30 07:47:00,63.5,58.2,29.67,North,360,9.0,14.0,83,0.00,,OVC240,0.00,VWS V14.01,2013-04-30 12:47:00,
2013-04-30 07:50:00,63.6,58.7,29.68,SSE,167,8.0,13.0,84,0.00,,SCT250,0.00,VWS V14.01,2013-04-30 12:50:00,
2013-04-30 07:52:00,63.7,58.5,29.68,North,360,5.0,15.0,83,0.00,,OVC240,0.00,VWS V14.01,2013-04-30 12:52:00,
2013-04-30 07:55:00,63.7,58.5,29.68,South,179,7.0,15.0,83,0.00,,SCT250,0.00,VWS V14.01,2013-04-30 12:55:00,
2013-04-30 07:57:00,63.8,58.5,29.68,South,184,5.0,15.0,83,0.00,,OVC240,0.00,VWS V14.01,2013-04-30 12:57:00,
2013-04-30 08:00:00,63.8,58.5,29.68,North,360,5.0,15.0,83,0.00,,SCT250,0.00,VWS V14.01,2013-04-30 13:00:00,
2013-04-30 08:02:00,63.8,58.5,29.68,North,360,7.0,17.0,83,0.00,,BKN250,0.00,VWS V14.01,2013-04-30 13:02:00,
2013-04-30 08:05:00,63.8,58.5,29.69,North,360,10.0,17.0,83,0.00,,SCT250,0.00,VWS V14.01,2013-04-30 13:05:00,
2013-04-30 08:07:00,63.8,58.5,29.69,North,360,11.0,19.0,83,0.00,,BKN250,0.00,VWS V14.01,2013-04-30 13:07:00,
2013-04-30 08:10:00,63.9,58.6,29.68,South,179,4.0,16.0,83,0.00,,SCT250,0.00,VWS V14.01,2013-04-30 13:10:00,
2013-04-30 08:12:00,63.9,58.6,29.68,North,360,15.0,24.0,83,0.00,,BKN250,0.00,VWS V14.01,2013-04-30 13:12:00,
2013-04-30 08:15:00,64.0,58.7,29.68,North,360,11.0,24.0,83,0.00,,SCT250,0.00,VWS V14.01,2013-04-30 13:15:00,
2013-04-30 08:17:00,64.0,58.7,29.68,SE,146,7.0,17.0,83,0.00,,BKN250,0.00,VWS V14.01,2013-04-30 13:17:00,
2013-04-30 08:20:00,64.1,58.8,29.68,SSE,160,9.0,17.0,83,0.00,,SCT250,0.00,VWS V14.01,2013-04-30 13:20:00,
2013-04-30 08:22:00,64.1,58.8,29.68,North,360,8.0,17.0,83,0.00,,BKN250,0.00,VWS V14.01,2013-04-30 13:22:00,
2013-04-30 08:25:00,64.1,58.8,29.68,North,360,12.0,17.0,83,0.00,,SCT250,0.00,VWS V14.01,2013-04-30 13:25:00,
2013-04-30 08:27:00,64.2,58.9,29.68,North,360,11.0,16.0,83,0.00,,BKN250,0.00,VWS V14.01,2013-04-30 13:27:00,
2013-04-30 08:30:00,64.3,58.7,29.69,North,360,11.0,16.0,82,0.00,,SCT250,0.00,VWS V14.01,2013-04-30 13:30:00,
2013-04-30 08:33:00,64.3,58.7,29.68,North,360,11.0,14.0,82,0.00,,BKN250,0.00,VWS V14.01,2013-04-30 13:33:00,
2013-04-30 08:35:00,64.3,58.7,29.68,North,360,13.0,14.0,82,0.00,,SCT250,0.00,VWS V14.01,2013-04-30 13:35:00,
2013-04-30 08:38:00,64.5,58.9,29.68,North,360,6.0,14.0,82,0.00,,BKN250,0.00,VWS V14.01,2013-04-30 13:38:00,
2013-04-30 08:40:00,64.5,58.9,29.69,North,360,10.0,14.0,82,0.00,,SCT250,0.00,VWS V14.01,2013-04-30 13:40:00,
2013-04-30 08:43:00,64.5,58.9,29.69,North,360,14.0,14.0,82,0.00,,BKN250,0.00,VWS V14.01,2013-04-30 13:43:00,
2013-04-30 08:45:00,64.5,58.9,29.69,North,360,11.0,14.0,82,0.00,,SCT250,0.00,VWS V14.01,2013-04-30 13:45:00,
2013-04-30 08:48:00,64.7,59.1,29.69,North,360,15.0,19.0,82,0.00,,BKN250,0.00,VWS V14.01,2013-04-30 13:48:00,
2013-04-30 08:50:00,64.7,59.1,29.69,North,360,19.0,23.0,82,0.00,,SCT250,0.00,VWS V14.01,2013-04-30 13:50:00,
2013-04-30 08:53:00,64.9,59.3,29.69,SSE,157,16.0,21.0,82,0.00,,BKN250,0.00,VWS V14.01,2013-04-30 13:53:00,
2013-04-30 08:55:00,64.9,58.9,29.69,SE,141,13.0,20.0,81,0.00,,SCT250,0.00,VWS V14.01,2013-04-30 13:55:00,
2013-04-30 08:58:00,65.1,59.1,29.70,North,360,6.0,21.0,81,0.00,,BKN250,0.00,VWS V14.01,2013-04-30 13:58:00,
2013-04-30 09:00:00,65.1,59.1,29.70,North,360,6.0,16.0,81,0.00,,SCT250,0.00,VWS V14.01,2013-04-30 14:00:00,
2013-04-30 09:03:00,65.4,59.4,29.69,North,360,7.0,16.0,81,0.00,,BKN250,0.00,VWS V14.01,2013-04-30 14:03:00,
2013-04-30 09:05:00,65.4,59.4,29.69,SSE,166,3.0,16.0,81,0.00,,SCT250,0.00,VWS V14.01,2013-04-30 14:05:00,
2013-04-30 09:08:00,65.7,59.4,29.68,SSW,213,9.0,14.0,80,0.00,,BKN250,0.00,VWS V14.01,2013-04-30 14:08:00,
2013-04-30 09:10:00,65.8,59.5,29.68,SSE,156,5.0,14.0,80,0.00,,SCT250,0.00,VWS V14.01,2013-04-30 14:10:00,
2013-04-30 09:13:00,66.0,59.7,29.69,North,360,13.0,18.0,80,0.00,,BKN250,0.00,VWS V14.01,2013-04-30 14:13:00,
2013-04-30 09:15:00,66.0,59.7,29.69,North,360,15.0,18.0,80,0.00,,SCT250,0.00,VWS V14.01,2013-04-30 14:15:00,
2013-04-30 09:18:00,66.1,59.8,29.69,North,360,10.0,16.0,80,0.00,,BKN250,0.00,VWS V14.01,2013-04-30 14:18:00,
2013-04-30 09:20:00,66.1,59.8,29.69,North,360,2.0,16.0,80,0.00,,SCT250,0.00,VWS V14.01,2013-04-30 14:20:00,
2013-04-30 09:23:00,66.1,59.8,29.69,SSE,167,11.0,12.0,80,0.00,,BKN250,0.00,VWS V14.01,2013-04-30 14:23:00,
2013-04-30 09:25:00,66.1,59.8,29.69,North,360,8.0,12.0,80,0.00,,SCT250,0.00,VWS V14.01,2013-04-30 14:25:00,
2013-04-30 09:28:00,63.4,52.7,29.69,East,101,0.0,5.0,68,0.00,,BKN250,0.00,VWS V14.01,2013-04-30 14:28:00,
2013-04-30 09:30:00,63.1,52.4,29.69,East,101,0.0,5.0,68,0.00,,SCT250,0.00,VWS V14.01,2013-04-30 14:30:00,
2013-04-30 09:33:00,60.3,53.8,29.69,North,360,9.0,11.0,79,0.00,,BKN250,0.00,VWS V14.01,2013-04-30 14:33:00,
2013-04-30 09:35:00,60.4,55.5,29.69,SSE,168,4.0,11.0,84,0.00,,SCT250,0.00,VWS V14.01,2013-04-30 14:35:00,
2013-04-30 09:38:00,59.6,50.6,29.68,East,101,2.0,11.0,72,0.00,,BKN250,0.00,VWS V14.01,2013-04-30 14:38:00,
2013-04-30 09:40:00,59.5,50.5,29.69,ESE,118,5.0,11.0,72,0.00,,SCT250,0.00,VWS V14.01,2013-04-30 14:40:00,
2013-04-30 09:44:00,55.7,49.3,29.69,ESE,104,1.0,8.0,79,0.00,,BKN250,0.00,VWS V14.01,2013-04-30 14:44:00,
2013-04-30 09:45:00,55.6,49.2,29.69,ESE,103,2.0,8.0,79,0.00,,SCT250,0.00,VWS V14.01,2013-04-30 14:45:00,
2013-04-30 09:49:00,52.9,47.6,29.68,ESE,119,8.0,10.0,82,0.00,,BKN250,0.00,VWS V14.01,2013-04-30 14:49:00,
2013-04-30 09:50:00,52.9,47.6,29.69,SE,126,7.0,10.0,82,0.00,,SCT250,0.00,VWS V14.01,2013-04-30 14:50:00,
2013-04-30 09:54:00,51.4,47.4,29.69,SE,130,8.0,11.0,86,0.00,,BKN250,0.00,VWS V14.01,2013-04-30 14:54:00,
2013-04-30 09:55:00,51.4,47.4,29.69,SE,130,8.0,11.0,86,0.00,,SCT250,0.00,VWS V14.01,2013-04-30 14:55:00,
2013-04-30 09:59:00,50.8,47.4,29.69,SE,129,9.0,12.0,88,0.00,,BKN250,0.00,VWS V14.01,2013-04-30 14:59:00,
2013-04-30 10:00:00,50.8,47.4,29.69,SE,129,9.0,12.0,88,0.00,,SCT250,0.00,VWS V14.01,2013-04-30 15:00:00,
2013-04-30 10:04:00,50.6,47.5,29.69,ESE,111,10.0,13.0,89,0.00,,BKN250,0.00,VWS V14.01,2013-04-30 15:04:00,
2013-04-30 10:05:00,50.6,47.5,29.69,SE,130,5.0,13.0,89,0.00,,SCT250,0.00,VWS V14.01,2013-04-30 15:05:00,
2013-04-30 10:09:00,51.1,48.3,29.69,SE,134,5.0,13.0,90,0.00,,BKN250,0.00,VWS V14.01,2013-04-30 15:09:00,
2013-04-30 10:10:00,51.1,48.3,29.69,SE,140,7.0,13.0,90,0.00,,SCT250,0.00,VWS V14.01,2013-04-30 15:10:00,
2013-04-30 10:14:00,52.0,48.6,29.68,SE,132,9.0,14.0,88,0.00,,BKN250,0.00,VWS V14.01,2013-04-30 15:14:00,
2013-04-30 10:15:00,52.1,48.7,29.68,SE,137,8.0,14.0,88,0.00,,SCT250,0.00,VWS V14.01,2013-04-30 15:15:00,
2013-04-30 10:19:00,52.1,48.7,29.69,SE,126,12.0,15.0,88,0.00,,BKN250,0.00,VWS V14.01,2013-04-30 15:19:00,
2013-04-30 10:20:00,52.1,48.7,29.69,SE,140,7.0,15.0,88,0.00,,SCT250,0.00,VWS V14.01,2013-04-30 15:20:00,
2013-04-30 10:24:00,52.0,48.3,29.68,SE,130,5.0,14.0,87,0.00,,BKN250,0.00,VWS V14.01,2013-04-30 15:24:00,
2013-04-30 10:25:00,52.0,48.3,29.68,SE,136,8.0,14.0,87,0.00,,SCT250,0.00,VWS V14.01,2013-04-30 15:25:00,
2013-04-30 10:29:00,51.8,48.1,29.69,ESE,121,10.0,15.0,87,0.00,,BKN250,0.00,VWS V14.01,2013-04-30 15:29:00,
2013-04-30 10:30:00,51.7,48.3,29.69,SE,142,9.0,15.0,88,0.00,,SCT250,0.00,VWS V14.01,2013-04-30 15:30:00,
2013-04-30 10:34:00,52.2,49.1,29.69,ESE,113,3.0,13.0,89,0.00,,BKN250,0.00,VWS V14.01,2013-04-30 15:34:00,
2013-04-30 10:35:00,52.1,49.0,29.69,SE,132,7.0,13.0,89,0.00,,SCT250,0.00,VWS V14.01,2013-04-30 15:35:00,
2013-04-30 10:39:00,54.2,50.7,29.69,ESE,121,11.0,11.0,88,0.00,,BKN250,0.00,VWS V14.01,2013-04-30 15:39:00,
2013-04-30 10:40:00,54.0,50.5,29.69,ESE,118,7.0,11.0,88,0.00,,SCT250,0.00,VWS V14.01,2013-04-30 15:40:00,
2013-04-30 10:44:00,55.4,51.9,29.69,ESE,115,10.0,13.0,88,0.00,,BKN250,0.00,VWS V14.01,2013-04-30 15:44:00,
2013-04-30 10:45:00,55.0,51.2,29.69,SE,126,7.0,13.0,87,0.00,,SCT250,0.00,VWS V14.01,2013-04-30 15:45:00,
2013-04-30 10:49:00,56.3,51.2,29.69,ESE,121,8.0,14.0,83,0.00,,BKN250,0.00,VWS V14.01,2013-04-30 15:49:00,
2013-04-30 10:50:00,56.3,51.9,29.69,SE,125,6.0,14.0,85,0.00,,SCT250,0.00,VWS V14.01,2013-04-30 15:50:00,
2013-04-30 10:54:00,56.0,51.2,29.69,SE,132,10.0,14.0,84,0.00,,BKN250,0.00,VWS V14.01,2013-04-30 15:54:00,
2013-04-30 10:55:00,55.9,50.8,29.69,ESE,120,3.0,14.0,83,0.00,,SCT250,0.00,VWS V14.01,2013-04-30 15:55:00,
2013-04-30 11:00:00,55.7,50.0,29.69,SE,143,6.0,15.0,81,0.00,,BKN250,0.00,VWS V14.01,2013-04-30 16:00:00,
2013-04-30 11:05:00,54.3,49.3,29.69,ESE,117,8.0,16.0,83,0.00,,BKN250,0.00,VWS V14.01,2013-04-30 16:05:00,
2013-04-30 11:10:00,54.6,49.9,29.69,SE,137,10.0,11.0,84,0.00,,BKN250,0.00,VWS V14.01,2013-04-30 16:10:00,
2013-04-30 11:15:00,53.8,49.1,29.69,ESE,117,7.0,12.0,84,0.00,,BKN250,0.00,VWS V14.01,2013-04-30 16:15:00,
2013-04-30 11:20:00,54.3,49.9,29.69,SE,134,7.0,13.0,85,0.00,,BKN250,0.00,VWS V14.01,2013-04-30 16:20:00,
2013-04-30 11:25:00,54.1,49.7,29.69,ESE,122,8.0,12.0,85,0.00,,BKN250,0.00,VWS V14.01,2013-04-30 16:25:00,
2013-04-30 11:30:00,54.9,50.5,29.69,ESE,118,2.0,12.0,85,0.00,,BKN250,0.00,VWS V14.01,2013-04-30 16:30:00,
2013-04-30 11:35:00,55.8,52.6,29.69,SSE,165,0.0,11.0,89,0.00,,BKN250,0.00,VWS V14.01,2013-04-30 16:35:00,
2013-04-30 11:40:00,56.8,50.7,29.69,ESE,106,10.0,10.0,80,0.00,,BKN250,0.00,VWS V14.01,2013-04-30 16:40:00,
2013-04-30 11:45:00,55.8,50.1,29.69,East,80,5.0,12.0,81,0.00,,BKN250,0.00,VWS V14.01,2013-04-30 16:45:00,
2013-04-30 11:50:00,57.0,51.2,29.69,ESE,119,9.0,13.0,81,0.00,,BKN250,0.00,VWS V14.01,2013-04-30 16:50:00,
2013-04-30 11:55:00,56.5,51.1,29.68,ESE,117,12.0,12.0,82,0.00,,BKN250,0.00,VWS V14.01,2013-04-30 16:55:00,
2013-04-30 12:00:00,67.7,60.6,29.69,North,360,15.0,20.0,78,0.00,,BKN250,0.00,VWS V14.01,2013-04-30 17:00:00,
2013-04-30 12:05:00,73.4,60.0,29.68,North,360,21.0,22.0,63,0.00,,SCT250,0.00,VWS V14.01,2013-04-30 17:05:00,
2013-04-30 12:06:00,74.9,60.6,29.68,North,360,15.0,23.0,61,0.00,,BKN250,0.00,VWS V14.01,2013-04-30 17:06:00,
2013-04-30 12:10:00,75.8,60.0,29.68,SSE,161,13.0,23.0,58,0.00,,SCT250,0.00,VWS V14.01,2013-04-30 17:10:00,
2013-04-30 12:11:00,76.4,60.5,29.68,North,360,15.0,21.0,58,0.00,,BKN250,0.00,VWS V14.01,2013-04-30 17:11:00,
2013-04-30 12:15:00,76.7,59.8,29.68,ESE,115,0.0,27.0,56,0.00,,SCT250,0.00,VWS V14.01,2013-04-30 17:15:00,
2013-04-30 12:16:00,75.3,55.4,29.68,North,360,5.0,27.0,50,0.00,,BKN250,0.00,VWS V14.01,2013-04-30 17:16:00,
2013-04-30 12:20:00,74.7,58.5,29.68,North,360,1.0,22.0,57,0.00,,SCT250,0.00,VWS V14.01,2013-04-30 17:20:00,
2013-04-30 12:21:00,73.3,54.1,29.68,SSE,164,6.0,22.0,51,0.00,,BKN250,0.00,VWS V14.01,2013-04-30 17:21:00,
2013-04-30 12:25:00,73.6,59.3,29.68,North,360,12.0,23.0,61,0.00,,SCT250,0.00,VWS V14.01,2013-04-30 17:25:00,
2013-04-30 12:26:00,73.8,57.1,29.68,SSW,207,4.0,23.0,56,0.00,,BKN250,0.00,VWS V14.01,2013-04-30 17:26:00,
2013-04-30 12:30:00,72.6,57.9,29.68,North,360,15.0,29.0,60,0.00,,SCT250,0.00,VWS V14.01,2013-04-30 17:30:00,
2013-04-30 12:31:00,75.2,59.4,29.68,SSW,211,11.0,29.0,58,0.00,,BKN250,0.00,VWS V14.01,2013-04-30 17:31:00,
2013-04-30 12:35:00,77.1,59.2,29.67,North,360,11.0,27.0,54,0.00,,SCT250,0.00,VWS V14.01,2013-04-30 17:35:00,
2013-04-30 12:36:00,78.0,59.5,29.68,North,360,15.0,20.0,53,0.00,,BKN250,0.00,VWS V14.01,2013-04-30 17:36:00,
2013-04-30 12:40:00,78.4,59.3,29.68,North,360,13.0,23.0,52,0.00,,SCT250,0.00,VWS V14.01,2013-04-30 17:40:00,
2013-04-30 12:41:00,78.5,59.4,29.68,North,360,6.0,24.0,52,0.00,,BKN250,0.00,VWS V14.01,2013-04-30 17:41:00,
2013-04-30 12:45:00,78.4,59.3,29.68,North,360,26.0,27.0,52,0.00,,SCT250,0.00,VWS V14.01,2013-04-30 17:45:00,
2013-04-30 12:46:00,78.3,58.7,29.68,North,360,14.0,27.0,51,0.00,,BKN250,0.00,VWS V14.01,2013-04-30 17:46:00,
2013-04-30 12:50:00,78.6,59.0,29.68,North,360,13.0,26.0,51,0.00,,SCT250,0.00,VWS V14.01,2013-04-30 17:50:00,
2013-04-30 12:51:00,79.0,59.3,29.68,North,360,5.0,21.0,51,0.00,,BKN250,0.00,VWS V14.01,2013-04-30 17:51:00,
2013-04-30 12:55:00,78.6,59.0,29.68,North,360,17.0,21.0,51,0.00,,SCT250,0.00,VWS V14.01,2013-04-30 17:55:00,
2013-04-30 12:56:00,79.0,59.3,29.67,North,360,11.0,23.0,51,0.00,,BKN250,0.00,VWS V14.01,2013-04-30 17:56:00,
2013-04-30 13:00:00,79.2,59.5,29.67,North,360,3.0,23.0,51,0.00,,SCT250,0.00,VWS V14.01,2013-04-30 18:00:00,
2013-04-30 13:01:00,79.7,59.4,29.67,North,360,21.0,22.0,50,0.00,,BKN250,0.00,VWS V14.01,2013-04-30 18:01:00,
2013-04-30 13:05:00,79.8,59.0,29.67,SSE,165,0.0,22.0,49,0.00,,SCT250,0.00,VWS V14.01,2013-04-30 18:05:00,
2013-04-30 13:06:00,78.9,59.2,29.67,SSE,163,9.0,19.0,51,0.00,,BKN250,0.00,VWS V14.01,2013-04-30 18:06:00,
2013-04-30 13:10:00,79.3,59.6,29.67,SSE,165,5.0,24.0,51,0.00,,SCT250,0.00,VWS V14.01,2013-04-30 18:10:00,
2013-04-30 13:11:00,78.9,57.6,29.67,South,188,0.0,24.0,48,0.00,,BKN250,0.00,VWS V14.01,2013-04-30 18:11:00,
2013-04-30 13:15:00,78.7,59.6,29.67,North,360,12.0,21.0,52,0.00,,SCT250,0.00,VWS V14.01,2013-04-30 18:15:00,
2013-04-30 13:17:00,79.8,59.5,29.67,SSE,164,18.0,21.0,50,0.00,,BKN250,0.00,VWS V14.01,2013-04-30 18:17:00,
2013-04-30 13:20:00,80.3,59.4,29.67,North,360,5.0,21.0,49,0.00,,SCT250,0.00,VWS V14.01,2013-04-30 18:20:00,
2013-04-30 13:22:00,80.5,59.6,29.67,SSE,167,10.0,19.0,49,0.00,,BKN250,0.00,VWS V14.01,2013-04-30 18:22:00,
2013-04-30 13:25:00,80.7,59.8,29.67,North,360,15.0,23.0,49,0.00,,SCT250,0.00,VWS V14.01,2013-04-30 18:25:00,
2013-04-30 13:27:00,80.0,58.6,29.67,North,360,13.0,23.0,48,0.00,,BKN250,0.00,VWS V14.01,2013-04-30 18:27:00,
2013-04-30 13:30:00,79.9,59.0,29.67,North,360,5.0,18.0,49,0.00,,SCT250,0.00,VWS V14.01,2013-04-30 18:30:00,
2013-04-30 13:32:00,80.8,59.9,29.67,North,360,11.0,18.0,49,0.00,,BKN250,0.00,VWS V14.01,2013-04-30 18:32:00,
2013-04-30 13:35:00,81.3,59.2,29.67,North,360,12.0,19.0,47,0.00,,SCT250,0.00,VWS V14.01,2013-04-30 18:35:00,
2013-04-30 13:37:00,81.6,58.2,29.67,North,360,26.0,26.0,45,0.00,,BKN250,0.00,VWS V14.01,2013-04-30 18:37:00,
2013-04-30 13:40:00,81.4,58.0,29.67,North,360,10.0,26.0,45,0.00,,FEW070,0.00,VWS V14.01,2013-04-30 18:40:00,
2013-04-30 13:42:00,80.7,55.5,29.67,SE,146,0.0,19.0,42,0.00,,BKN250,0.00,VWS V14.01,2013-04-30 18:42:00,
2013-04-30 13:45:00,79.0,55.2,29.67,SE,128,0.0,9.0,44,0.00,,FEW250,0.00,VWS V14.01,2013-04-30 18:45:00,
2013-04-30 13:47:00,75.2,54.2,29.67,North,360,7.0,9.0,48,0.00,,BKN250,0.00,VWS V14.01,2013-04-30 18:47:00,
2013-04-30 13:50:00,75.1,57.8,29.67,North,360,21.0,31.0,55,0.00,,SCT250,0.00,VWS V14.01,2013-04-30 18:50:00,
2013-04-30 13:52:00,79.4,59.2,29.67,North,360,8.0,23.0,50,0.00,,BKN250,0.00,VWS V14.01,2013-04-30 18:52:00,
2013-04-30 13:55:00,80.5,57.8,29.67,North,360,11.0,23.0,46,0.00,,SCT250,0.00,VWS V14.01,2013-04-30 18:55:00,
2013-04-30 13:57:00,82.0,58.6,29.67,WSW,244,9.0,24.0,45,0.00,,BKN250,0.00,VWS V14.01,2013-04-30 18:57:00,
2013-04-30 14:00:00,82.4,58.3,29.67,North,360,5.0,24.0,44,0.00,,SCT250,0.00,VWS V14.01,2013-04-30 19:00:00,
2013-04-30 14:02:00,83.0,58.2,29.67,North,360,6.0,19.0,43,0.00,,BKN250,0.00,VWS V14.01,2013-04-30 19:02:00,
2013-04-30 14:05:00,83.1,58.3,29.67,North,360,2.0,19.0,43,0.00,,SCT250,0.00,VWS V14.01,2013-04-30 19:05:00,
2013-04-30 14:07:00,82.4,57.7,29.67,North,360,14.0,22.0,43,0.00,,BKN250,0.00,VWS V14.01,2013-04-30 19:07:00,
2013-04-30 14:10:00,82.6,57.9,29.67,SW,218,14.0,22.0,43,0.00,,SCT250,0.00,VWS V14.01,2013-04-30 19:10:00,
2013-04-30 14:12:00,83.2,57.1,29.66,North,360,17.0,25.0,41,0.00,,BKN250,0.00,VWS V14.01,2013-04-30 19:12:00,
2013-04-30 14:15:00,83.2,57.8,29.67,North,360,13.0,25.0,42,0.00,,SCT250,0.00,VWS V14.01,2013-04-30 19:15:00,
2013-04-30 14:17:00,80.9,54.3,29.67,South,179,2.0,21.0,40,0.00,,BKN250,0.00,VWS V14.01,2013-04-30 19:17:00,
2013-04-30 14:20:00,79.5,56.9,29.67,South,179,7.0,15.0,46,0.00,,SCT250,0.00,VWS V14.01,2013-04-30 19:20:00,
2013-04-30 14:22:00,81.6,57.6,29.67,ESE,118,4.0,19.0,44,0.00,,BKN250,0.00,VWS V14.01,2013-04-30 19:22:00,
2013-04-30 14:25:00,81.4,56.1,29.67,SSW,192,7.0,18.0,42,0.00,,SCT250,0.00,VWS V14.01,2013-04-30 19:25:00,
2013-04-30 14:28:00,82.8,56.0,29.67,North,360,11.0,22.0,40,0.00,,BKN250,0.00,VWS V14.01,2013-04-30 19:28:00,
2013-04-30 14:30:00,82.9,56.8,29.67,North,360,15.0,22.0,41,0.00,,SCT250,0.00,VWS V14.01,2013-04-30 19:30:00,
2013-04-30 14:33:00,83.5,56.7,29.67,South,186,28.0,29.0,40,0.00,,BKN250,0.00,VWS V14.01,2013-04-30 19:33:00,
2013-04-30 14:35:00,83.7,56.1,29.67,North,360,17.0,29.0,39,0.00,,SCT250,0.00,VWS V14.01,2013-04-30 19:35:00,
2013-04-30 14:38:00,77.0,49.5,29.67,ESE,117,5.0,28.0,38,0.00,,BKN250,0.00,VWS V14.01,2013-04-30 19:38:00,
2013-04-30 14:40:00,73.5,48.4,29.67,ESE,117,1.0,14.0,41,0.00,,SCT250,0.00,VWS V14.01,2013-04-30 19:40:00,
2013-04-30 14:43:00,65.3,49.7,29.67,SSE,167,1.0,11.0,57,0.00,,BKN250,0.00,VWS V14.01,2013-04-30 19:43:00,
2013-04-30 14:45:00,65.2,52.3,29.67,North,360,18.0,20.0,63,0.00,,SCT250,0.00,VWS V14.01,2013-04-30 19:45:00,
2013-04-30 14:48:00,69.9,51.0,29.67,SE,137,6.0,20.0,51,0.00,,BKN250,0.00,VWS V14.01,2013-04-30 19:48:00,
2013-04-30 14:50:00,69.0,51.2,29.67,SW,217,3.0,14.0,53,0.00,,SCT250,0.00,VWS V14.01,2013-04-30 19:50:00,
2013-04-30 14:53:00,69.0,50.1,29.67,SE,126,3.0,15.0,51,0.00,,BKN250,0.00,VWS V14.01,2013-04-30 19:53:00,
2013-04-30 14:55:00,67.8,50.1,29.67,SE,140,1.0,15.0,53,0.00,,SCT250,0.00,VWS V14.01,2013-04-30 19:55:00,
2013-04-30 14:58:00,67.6,53.7,29.67,WSW,244,1.0,12.0,61,0.00,,BKN250,0.00,VWS V14.01,2013-04-30 19:58:00,
2013-04-30 15:00:00,69.4,55.4,29.67,South,170,2.0,12.0,61,0.00,,SCT250,0.00,VWS V14.01,2013-04-30 20:00:00,
2013-04-30 15:03:00,78.5,54.2,29.67,North,360,15.0,20.0,43,0.00,,BKN250,0.00,VWS V14.01,2013-04-30 20:03:00,
2013-04-30 15:05:00,79.3,54.9,29.67,South,178,6.0,20.0,43,0.00,,SCT250,0.00,VWS V14.01,2013-04-30 20:05:00,
2013-04-30 15:08:00,74.4,52.3,29.67,SE,137,7.0,21.0,46,0.00,,BKN250,0.00,VWS V14.01,2013-04-30 20:08:00,
2013-04-30 15:10:00,74.0,51.9,29.67,SE,136,1.0,21.0,46,0.00,,SCT250,0.00,VWS V14.01,2013-04-30 20:10:00,
2013-04-30 15:13:00,78.6,54.3,29.67,SSW,200,16.0,26.0,43,0.00,,BKN250,0.00,VWS V14.01,2013-04-30 20:13:00,
2013-04-30 15:15:00,79.6,53.8,29.67,North,360,26.0,26.0,41,0.00,,SCT250,0.00,VWS V14.01,2013-04-30 20:15:00,
2013-04-30 15:18:00,84.5,53.1,29.67,North,360,21.0,29.0,34,0.00,,BKN250,0.00,VWS V14.01,2013-04-30 20:18:00,
2013-04-30 15:20:00,84.7,52.4,29.67,North,360,13.0,29.0,33,0.00,,SCT250,0.00,VWS V14.01,2013-04-30 20:20:00,
2013-04-30 15:23:00,85.9,51.8,29.67,SSW,195,19.0,27.0,31,0.00,,BKN250,0.00,VWS V14.01,2013-04-30 20:23:00,
2013-04-30 15:25:00,85.9,51.8,29.67,SSW,194,18.0,27.0,31,0.00,,SCT250,0.00,VWS V14.01,2013-04-30 20:25:00,
2013-04-30 15:28:00,86.0,51.9,29.67,North,360,24.0,26.0,31,0.00,,BKN250,0.00,VWS V14.01,2013-04-30 20:28:00,
2013-04-30 15:30:00,86.0,51.0,29.67,North,360,20.0,27.0,30,0.00,,SCT250,0.00,VWS V14.01,2013-04-30 20:30:00,
2013-04-30 15:33:00,85.7,51.6,29.67,North,360,31.0,33.0,31,0.00,,BKN250,0.00,VWS V14.01,2013-04-30 20:33:00,
2013-04-30 15:35:00,85.7,51.6,29.67,North,360,23.0,33.0,31,0.00,,SCT250,0.00,VWS V14.01,2013-04-30 20:35:00,
2013-04-30 15:39:00,86.2,52.0,29.67,SSW,206,9.0,29.0,31,0.00,,BKN250,0.00,VWS V14.01,2013-04-30 20:39:00,
2013-04-30 15:40:00,86.2,52.0,29.67,SSW,206,9.0,29.0,31,0.00,,SCT250,0.00,VWS V14.01,2013-04-30 20:40:00,
2013-04-30 15:44:00,86.3,51.2,29.67,North,360,14.0,27.0,30,0.00,,BKN250,0.00,VWS V14.01,2013-04-30 20:44:00,
2013-04-30 15:45:00,86.3,51.2,29.67,North,360,10.0,27.0,30,0.00,,SCT250,0.00,VWS V14.01,2013-04-30 20:45:00,
2013-04-30 15:49:00,76.0,49.3,29.67,ESE,122,1.0,26.0,39,0.00,,BKN250,0.00,VWS V14.01,2013-04-30 20:49:00,
2013-04-30 15:50:00,75.5,48.8,29.67,ESE,123,1.0,26.0,39,0.00,,SCT250,0.00,VWS V14.01,2013-04-30 20:50:00,
2013-04-30 15:54:00,78.2,51.2,29.67,North,360,4.0,20.0,39,0.00,,BKN250,0.00,VWS V14.01,2013-04-30 20:54:00,
2013-04-30 15:55:00,78.2,51.2,29.67,North,360,4.0,20.0,39,0.00,,SCT250,0.00,VWS V14.01,2013-04-30 20:55:00,
2013-04-30 15:59:00,84.8,50.0,29.67,North,360,20.0,32.0,30,0.00,,BKN250,0.00,VWS V14.01,2013-04-30 20:59:00,
2013-04-30 16:00:00,84.8,50.0,29.67,North,360,20.0,32.0,30,0.00,,SCT250,0.00,VWS V14.01,2013-04-30 21:00:00,
2013-04-30 16:04:00,86.0,51.0,29.67,SW,227,22.0,34.0,30,0.00,,BKN250,0.00,VWS V14.01,2013-04-30 21:04:00,
2013-04-30 16:05:00,86.0,51.0,29.67,SW,227,22.0,34.0,30,0.00,,SCT250,0.00,VWS V14.01,2013-04-30 21:05:00,
2013-04-30 16:09:00,86.1,51.1,29.67,North,360,17.0,30.0,30,0.00,,BKN250,0.00,VWS V14.01,2013-04-30 21:09:00,
2013-04-30 16:10:00,86.1,51.1,29.67,North,360,17.0,30.0,30,0.00,,SCT250,0.00,VWS V14.01,2013-04-30 21:10:00,
2013-04-30 16:14:00,86.2,51.2,29.67,North,360,11.0,31.0,30,0.00,,BKN250,0.00,VWS V14.01,2013-04-30 21:14:00,
2013-04-30 16:15:00,86.2,51.2,29.67,North,360,8.0,31.0,30,0.00,,SCT250,0.00,VWS V14.01,2013-04-30 21:15:00,
2013-04-30 16:19:00,86.5,51.4,29.68,North,360,21.0,31.0,30,0.00,,BKN250,0.00,VWS V14.01,2013-04-30 21:19:00,
2013-04-30 16:20:00,86.5,51.4,29.68,North,360,18.0,31.0,30,0.00,,SCT250,0.00,VWS V14.01,2013-04-30 21:20:00,
2013-04-30 16:24:00,86.7,51.6,29.68,South,181,9.0,29.0,30,0.00,,BKN250,0.00,VWS V14.01,2013-04-30 21:24:00,
2013-04-30 16:25:00,86.6,52.4,29.68,North,360,9.0,23.0,31,0.00,,SCT250,0.00,VWS V14.01,2013-04-30 21:25:00,
2013-04-30 16:29:00,86.0,51.9,29.68,South,175,4.0,26.0,31,0.00,,BKN250,0.00,VWS V14.01,2013-04-30 21:29:00,
2013-04-30 16:30:00,86.5,52.3,29.68,North,360,18.0,32.0,31,0.00,,SCT250,0.00,VWS V14.01,2013-04-30 21:30:00,
2013-04-30 16:35:00,86.0,53.6,29.68,North,360,1.0,32.0,33,0.00,,BKN250,0.00,VWS V14.01,2013-04-30 21:35:00,
2013-04-30 16:40:00,76.5,49.7,29.68,SE,125,8.0,12.0,39,0.00,,BKN250,0.00,VWS V14.01,2013-04-30 21:40:00,
2013-04-30 16:45:00,70.3,50.8,29.68,SE,128,5.0,22.0,50,0.00,,BKN250,0.00,VWS V14.01,2013-04-30 21:45:00,
2013-04-30 16:50:00,64.7,50.5,29.68,ESE,123,3.0,12.0,60,0.00,,BKN250,0.00,VWS V14.01,2013-04-30 21:50:00,
2013-04-30 16:55:00,63.5,49.8,29.68,SSE,167,9.0,12.0,61,0.00,,BKN250,0.00,VWS V14.01,2013-04-30 21:55:00,
2013-04-30 17:00:00,63.0,50.2,29.68,SSE,155,7.0,13.0,63,0.00,,BKN250,0.00,VWS V14.01,2013-04-30 22:00:00,
2013-04-30 17:05:00,60.5,49.5,29.69,SE,126,6.0,13.0,67,0.00,,BKN250,0.00,VWS V14.01,2013-04-30 22:05:00,
2013-04-30 17:10:00,62.2,53.8,29.69,SE,146,1.0,11.0,74,0.00,,BKN250,0.00,VWS V14.01,2013-04-30 22:10:00,
2013-04-30 17:15:00,63.7,50.9,29.69,SE,138,7.0,13.0,63,0.00,,BKN250,0.00,VWS V14.01,2013-04-30 22:15:00,
2013-04-30 17:20:00,66.4,53.0,29.69,SE,136,6.0,12.0,62,0.00,,BKN250,0.00,VWS V14.01,2013-04-30 22:20:00,
2013-04-30 17:25:00,67.3,53.4,29.69,SSE,152,4.0,14.0,61,0.00,,BKN250,0.00,VWS V14.01,2013-04-30 22:25:00,
2013-04-30 17:30:00,71.8,55.8,29.69,SSE,155,6.0,19.0,57,0.00,,BKN250,0.00,VWS V14.01,2013-04-30 22:30:00,
2013-04-30 17:35:00,73.5,53.7,29.69,SE,137,3.0,19.0,50,0.00,,SCT250,0.00,VWS V14.01,2013-04-30 22:35:00,
2013-04-30 17:36:00,74.6,55.3,29.69,SSE,168,5.0,19.0,51,0.00,,BKN250,0.00,VWS V14.01,2013-04-30 22:36:00,
2013-04-30 17:40:00,78.0,55.0,29.69,SSE,153,3.0,25.0,45,0.00,,SCT250,0.00,VWS V14.01,2013-04-30 22:40:00,
2013-04-30 17:41:00,78.2,55.8,29.69,North,360,16.0,24.0,46,0.00,,BKN250,0.00,VWS V14.01,2013-04-30 22:41:00,
2013-04-30 17:45:00,79.3,54.9,29.70,SSE,148,9.0,23.0,43,0.00,,SCT250,0.00,VWS V14.01,2013-04-30 22:45:00,
2013-04-30 17:46:00,79.0,55.2,29.69,North,360,3.0,20.0,44,0.00,,BKN250,0.00,VWS V14.01,2013-04-30 22:46:00,
2013-04-30 17:50:00,80.5,56.6,29.70,South,188,1.0,22.0,44,0.00,,SCT250,0.00,VWS V14.01,2013-04-30 22:50:00,
2013-04-30 17:51:00,81.3,56.7,29.70,North,360,23.0,25.0,43,0.00,,BKN250,0.00,VWS V14.01,2013-04-30 22:51:00,
2013-04-30 17:55:00,83.0,56.2,29.70,North,360,19.0,27.0,40,0.00,,SCT250,0.00,VWS V14.01,2013-04-30 22:55:00,
2013-04-30 17:56:00,83.7,56.1,29.70,SE,143,6.0,27.0,39,0.00,,BKN250,0.00,VWS V14.01,2013-04-30 22:56:00,
2013-04-30 18:00:00,84.0,56.4,29.70,SW,217,14.0,21.0,39,0.00,,SCT250,0.00,VWS V14.01,2013-04-30 23:00:00,
2013-04-30 18:01:00,84.2,55.9,29.70,North,360,14.0,28.0,38,0.00,,BKN250,0.00,VWS V14.01,2013-04-30 23:01:00,
2013-04-30 18:05:00,84.2,55.9,29.70,North,360,26.0,28.0,38,0.00,,SCT250,0.00,VWS V14.01,2013-04-30 23:05:00,
2013-04-30 18:06:00,84.2,55.1,29.70,North,360,12.0,32.0,37,0.00,,BKN250,0.00,VWS V14.01,2013-04-30 23:06:00,
2013-04-30 18:10:00,84.2,55.1,29.70,North,360,7.0,32.0,37,0.00,,SCT250,0.00,VWS V14.01,2013-04-30 23:10:00,
2013-04-30 18:11:00,84.2,55.9,29.70,North,360,6.0,26.0,38,0.00,,BKN250,0.00,VWS V14.01,2013-04-30 23:11:00,
2013-04-30 18:15:00,84.2,55.1,29.70,North,360,12.0,21.0,37,0.00,,SCT250,0.00,VWS V14.01,2013-04-30 23:15:00,
2013-04-30 18:16:00,84.1,55.0,29.70,South,170,13.0,29.0,37,0.00,,BKN250,0.00,VWS V14.01,2013-04-30 23:16:00,
2013-04-30 18:20:00,84.1,55.0,29.71,North,360,14.0,29.0,37,0.00,,SCT250,0.00,VWS V14.01,2013-04-30 23:20:00,
2013-04-30 18:21:00,84.1,55.0,29.71,North,360,8.0,25.0,37,0.00,,BKN250,0.00,VWS V14.01,2013-04-30 23:21:00,
2013-04-30 18:25:00,84.0,55.0,29.70,North,360,9.0,25.0,37,0.00,,SCT250,0.00,VWS V14.01,2013-04-30 23:25:00,
2013-04-30 18:26:00,83.9,54.9,29.71,South,182,18.0,22.0,37,0.00,,BKN250,0.00,VWS V14.01,2013-04-30 23:26:00,
2013-04-30 18:30:00,83.9,54.9,29.71,South,178,20.0,20.0,37,0.00,,SCT250,0.00,VWS V14.01,2013-04-30 23:30:00,
2013-04-30 18:31:00,83.9,54.9,29.71,North,360,17.0,21.0,37,0.00,,BKN250,0.00,VWS V14.01,2013-04-30 23:31:00,
2013-04-30 18:35:00,83.8,54.8,29.71,SW,220,13.0,26.0,37,0.00,,SCT250,0.00,VWS V14.01,2013-04-30 23:35:00,
2013-04-30 18:36:00,83.8,54.8,29.71,North,360,8.0,26.0,37,0.00,,BKN250,0.00,VWS V14.01,2013-04-30 23:36:00,
2013-04-30 18:40:00,83.7,54.7,29.71,SSE,166,14.0,20.0,37,0.00,,SCT250,0.00,VWS V14.01,2013-04-30 23:40:00,
2013-04-30 18:42:00,83.6,54.6,29.71,North,360,8.0,19.0,37,0.00,,BKN250,0.00,VWS V14.01,2013-04-30 23:42:00,
2013-04-30 18:45:00,83.5,54.5,29.71,North,360,6.0,19.0,37,0.00,,SCT250,0.00,VWS V14.01,2013-04-30 23:45:00,
2013-04-30 18:47:00,83.5,54.5,29.72,SSE,166,10.0,24.0,37,0.00,,BKN250,0.00,VWS V14.01,2013-04-30 23:47:00,
2013-04-30 18:50:00,83.5,54.5,29.72,North,360,13.0,24.0,37,0.00,,SCT250,0.00,VWS V14.01,2013-04-30 23:50:00,
2013-04-30 18:52:00,83.4,54.4,29.72,North,360,12.0,15.0,37,0.00,,BKN250,0.00,VWS V14.01,2013-04-30 23:52:00,
2013-04-30 18:55:00,83.4,54.4,29.72,North,360,16.0,20.0,37,0.00,,SCT250,0.00,VWS V14.01,2013-04-30 23:55:00,
2013-04-30 18:57:00,83.2,55.0,29.72,North,360,19.0,20.0,38,0.00,,BKN250,0.00,VWS V14.01,2013-04-30 23:57:00,
2013-04-30 19:00:00,83.2,54.2,29.72,South,171,15.0,20.0,37,0.00,,SCT250,0.00,VWS V14.01,2013-05-01 00:00:00,
2013-04-30 19:02:00,83.2,55.0,29.72,SSW,194,6.0,20.0,38,0.00,,BKN250,0.00,VWS V14.01,2013-05-01 00:02:00,
2013-04-30 19:05:00,83.0,54.8,29.72,North,360,3.0,15.0,38,0.00,,SCT250,0.00,VWS V14.01,2013-05-01 00:05:00,
2013-04-30 19:07:00,82.4,54.3,29.73,North,360,6.0,15.0,38,0.00,,BKN250,0.00,VWS V14.01,2013-05-01 00:07:00,
2013-04-30 19:10:00,82.5,54.4,29.73,North,360,17.0,17.0,38,0.00,,SCT250,0.00,VWS V14.01,2013-05-01 00:10:00,
2013-04-30 19:12:00,82.6,54.5,29.73,SSE,159,11.0,21.0,38,0.00,,BKN250,0.00,VWS V14.01,2013-05-01 00:12:00,
2013-04-30 19:15:00,82.7,54.5,29.73,North,360,17.0,22.0,38,0.00,,SCT250,0.00,VWS V14.01,2013-05-01 00:15:00,
2013-04-30 19:17:00,82.8,53.9,29.73,North,360,7.0,22.0,37,0.00,,BKN250,0.00,VWS V14.01,2013-05-01 00:17:00,
2013-04-30 19:20:00,82.8,53.9,29.73,North,360,13.0,22.0,37,0.00,,SCT250,0.00,VWS V14.01,2013-05-01 00:20:00,
2013-04-30 19:22:00,82.7,53.8,29.73,North,360,13.0,20.0,37,0.00,,BKN250,0.00,VWS V14.01,2013-05-01 00:22:00,
2013-04-30 19:25:00,82.7,53.8,29.73,SW,221,14.0,18.0,37,0.00,,SCT250,0.00,VWS V14.01,2013-05-01 00:25:00,
2013-04-30 19:27:00,82.7,53.8,29.73,SSW,212,12.0,23.0,37,0.00,,BKN250,0.00,VWS V14.01,2013-05-01 00:27:00,
2013-04-30 19:30:00,82.7,53.8,29.73,North,360,12.0,23.0,37,0.00,,SCT250,0.00,VWS V14.01,2013-05-01 00:30:00,
2013-04-30 19:32:00,82.5,53.6,29.74,North,360,14.0,18.0,37,0.00,,BKN250,0.00,VWS V14.01,2013-05-01 00:32:00,
2013-04-30 19:35:00,82.5,53.6,29.74,North,360,17.0,21.0,37,0.00,,SCT250,0.00,VWS V14.01,2013-05-01 00:35:00,
2013-04-30 19:37:00,82.4,53.5,29.74,North,360,12.0,21.0,37,0.00,,BKN250,0.00,VWS V14.01,2013-05-01 00:37:00,
2013-04-30 19:40:00,82.4,53.5,29.74,North,360,8.0,19.0,37,0.00,,SCT250,0.00,VWS V14.01,2013-05-01 00:40:00,
2013-04-30 19:42:00,82.2,52.6,29.74,North,360,12.0,19.0,36,0.00,,BKN250,0.00,VWS V14.01,2013-05-01 00:42:00,
2013-04-30 19:45:00,82.2,53.4,29.74,North,360,14.0,19.0,37,0.00,,SCT250,0.00,VWS V14.01,2013-05-01 00:45:00,
2013-04-30 19:48:00,82.1,53.3,29.74,SSW,193,8.0,18.0,37,0.00,,BKN250,0.00,VWS V14.01,2013-05-01 00:48:00,
2013-04-30 19:50:00,82.1,53.3,29.74,North,360,11.0,18.0,37,0.00,,SCT250,0.00,VWS V14.01,2013-05-01 00:50:00,
2013-04-30 19:53:00,81.9,53.1,29.74,North,360,6.0,15.0,37,0.00,,BKN250,0.00,VWS V14.01,2013-05-01 00:53:00,
2013-04-30 19:55:00,81.8,53.0,29.75,SSW,206,7.0,15.0,37,0.00,,SCT250,0.00,VWS V14.01,2013-05-01 00:55:00,
2013-04-30 19:58:00,81.6,53.6,29.75,South,186,4.0,11.0,38,0.00,,BKN250,0.00,VWS V14.01,2013-05-01 00:58:00,
2013-04-30 20:00:00,81.6,53.6,29.75,North,360,3.0,13.0,38,0.00,,SCT250,0.00,VWS V14.01,2013-05-01 01:00:00,
2013-04-30 20:03:00,81.4,53.4,29.75,SSW,213,3.0,18.0,38,0.00,,BKN250,0.00,VWS V14.01,2013-05-01 01:03:00,
2013-04-30 20:05:00,81.3,53.3,29.75,North,360,2.0,18.0,38,0.00,,SCT250,0.00,VWS V14.01,2013-05-01 01:05:00,
2013-04-30 20:08:00,80.9,53.7,29.75,North,360,11.0,14.0,39,0.00,,BKN250,0.00,VWS V14.01,2013-05-01 01:08:00,
2013-04-30 20:10:00,80.9,54.3,29.75,North,360,10.0,18.0,40,0.00,,SCT250,0.00,VWS V14.01,2013-05-01 01:10:00,
2013-04-30 20:13:00,80.9,54.3,29.75,North,360,10.0,15.0,40,0.00,,BKN250,0.00,VWS V14.01,2013-05-01 01:13:00,
2013-04-30 20:15:00,80.9,54.3,29.75,North,360,13.0,13.0,40,0.00,,SCT250,0.00,VWS V14.01,2013-05-01 01:15:00,
2013-04-30 20:18:00,80.8,54.9,29.76,North,360,7.0,16.0,41,0.00,,BKN250,0.00,VWS V14.01,2013-05-01 01:18:00,
2013-04-30 20:20:00,80.8,54.9,29.76,North,360,6.0,12.0,41,0.00,,SCT250,0.00,VWS V14.01,2013-05-01 01:20:00,
2013-04-30 20:23:00,80.8,54.9,29.76,North,360,10.0,19.0,41,0.00,,BKN250,0.00,VWS V14.01,2013-05-01 01:23:00,
2013-04-30 20:25:00,80.8,54.9,29.76,North,360,11.0,19.0,41,0.00,,SCT250,0.00,VWS V14.01,2013-05-01 01:25:00,
2013-04-30 20:28:00,80.7,55.5,29.76,North,360,18.0,18.0,42,0.00,,BKN250,0.00,VWS V14.01,2013-05-01 01:28:00,
2013-04-30 20:30:00,80.7,55.5,29.76,SSE,163,9.0,18.0,42,0.00,,SCT250,0.00,VWS V14.01,2013-05-01 01:30:00,
2013-04-30 20:33:00,80.4,55.2,29.76,SSE,158,4.0,12.0,42,0.00,,BKN250,0.00,VWS V14.01,2013-05-01 01:33:00,
2013-04-30 20:35:00,80.4,55.9,29.76,North,360,6.0,12.0,43,0.00,,SCT250,0.00,VWS V14.01,2013-05-01 01:35:00,
2013-04-30 20:38:00,80.2,55.7,29.76,North,360,6.0,12.0,43,0.00,,BKN250,0.00,VWS V14.01,2013-05-01 01:38:00,
2013-04-30 20:40:00,80.2,55.7,29.76,North,360,4.0,12.0,43,0.00,,SCT250,0.00,VWS V14.01,2013-05-01 01:40:00,
2013-04-30 20:43:00,79.9,56.1,29.76,North,360,1.0,14.0,44,0.00,,BKN250,0.00,VWS V14.01,2013-05-01 01:43:00,
2013-04-30 20:45:00,79.9,56.1,29.76,North,360,5.0,14.0,44,0.00,,SCT250,0.00,VWS V14.01,2013-05-01 01:45:00,
2013-04-30 20:48:00,79.5,56.9,29.76,North,360,7.0,13.0,46,0.00,,BKN250,0.00,VWS V14.01,2013-05-01 01:48:00,
2013-04-30 20:50:00,79.5,56.9,29.77,North,360,7.0,13.0,46,0.00,,SCT250,0.00,VWS V14.01,2013-05-01 01:50:00,
2013-04-30 20:53:00,79.1,57.2,29.77,SSE,162,4.0,13.0,47,0.00,,BKN250,0.00,VWS V14.01,2013-05-01 01:53:00,
2013-04-30 20:55:00,79.1,57.2,29.77,North,360,6.0,13.0,47,0.00,,SCT250,0.00,VWS V14.01,2013-05-01 01:55:00,
2013-04-30 20:59:00,79.0,57.7,29.77,North,360,13.0,14.0,48,0.00,,BKN250,0.00,VWS V14.01,2013-05-01 01:59:00,
2013-04-30 21:00:00,79.0,57.7,29.77,North,360,17.0,17.0,48,0.00,,SCT250,0.00,VWS V14.01,2013-05-01 02:00:00,
2013-04-30 21:04:00,79.2,57.8,29.77,SSE,160,10.0,20.0,48,0.00,,BKN250,0.00,VWS V14.01,2013-05-01 02:04:00,
2013-04-30 21:05:00,79.2,57.8,29.77,SSE,154,11.0,20.0,48,0.00,,SCT250,0.00,VWS V14.01,2013-05-01 02:05:00,
2013-04-30 21:09:00,78.9,57.6,29.77,North,360,8.0,12.0,48,0.00,,BKN250,0.00,VWS V14.01,2013-05-01 02:09:00,
2013-04-30 21:10:00,78.9,57.6,29.77,North,360,8.0,12.0,48,0.00,,SCT250,0.00,VWS V14.01,2013-05-01 02:10:00,
2013-04-30 21:14:00,79.0,57.7,29.77,SSE,165,13.0,19.0,48,0.00,,BKN250,0.00,VWS V14.01,2013-05-01 02:14:00,
2013-04-30 21:15:00,79.0,57.7,29.77,SSE,165,13.0,19.0,48,0.00,,SCT250,0.00,VWS V14.01,2013-05-01 02:15:00,
2013-04-30 21:19:00,79.1,57.8,29.77,North,360,9.0,18.0,48,0.00,,BKN250,0.00,VWS V14.01,2013-05-01 02:19:00,
2013-04-30 21:20:00,79.1,57.8,29.77,SSE,162,3.0,18.0,48,0.00,,SCT250,0.00,VWS V14.01,2013-05-01 02:20:00,
2013-04-30 21:24:00,79.1,57.8,29.78,North,360,5.0,20.0,48,0.00,,BKN250,0.00,VWS V14.01,2013-05-01 02:24:00,
2013-04-30 21:25:00,79.0,57.7,29.78,North,360,13.0,20.0,48,0.00,,SCT250,0.00,VWS V14.01,2013-05-01 02:25:00,
2013-04-30 21:29:00,78.8,57.5,29.78,North,360,11.0,16.0,48,0.00,,BKN250,0.00,VWS V14.01,2013-05-01 02:29:00,
2013-04-30 21:30:00,78.8,57.5,29.78,North,360,7.0,16.0,48,0.00,,SCT250,0.00,VWS V14.01,2013-05-01 02:30:00,
2013-04-30 21:34:00,78.5,57.2,29.78,North,360,6.0,16.0,48,0.00,,BKN250,0.00,VWS V14.01,2013-05-01 02:34:00,
2013-04-30 21:35:00,78.6,57.3,29.78,North,360,9.0,16.0,48,0.00,,SCT250,0.00,VWS V14.01,2013-05-01 02:35:00,
2013-04-30 21:39:00,78.5,57.2,29.78,North,360,7.0,17.0,48,0.00,,BKN250,0.00,VWS V14.01,2013-05-01 02:39:00,
2013-04-30 21:40:00,78.5,57.2,29.78,North,360,10.0,17.0,48,0.00,,SCT250,0.00,VWS V14.01,2013-05-01 02:40:00,
2013-04-30 21:44:00,78.4,57.1,29.78,SSE,165,12.0,17.0,48,0.00,,BKN250,0.00,VWS V14.01,2013-05-01 02:44:00,
2013-04-30 21:45:00,78.4,57.1,29.78,North,360,13.0,17.0,48,0.00,,SCT250,0.00,VWS V14.01,2013-05-01 02:45:00,
2013-04-30 21:49:00,78.3,57.0,29.78,North,360,8.0,15.0,48,0.00,,BKN250,0.00,VWS V14.01,2013-05-01 02:49:00,
2013-04-30 21:50:00,78.4,57.1,29.78,North,360,13.0,15.0,48,0.00,,SCT250,0.00,VWS V14.01,2013-05-01 02:50:00,
2013-04-30 21:54:00,78.2,56.9,29.78,North,360,14.0,17.0,48,0.00,,BKN250,0.00,VWS V14.01,2013-05-01 02:54:00,
2013-04-30 21:55:00,78.2,56.9,29.78,North,360,8.0,18.0,48,0.00,,SCT250,0.00,VWS V14.01,2013-05-01 02:55:00,
2013-04-30 21:59:00,78.2,56.9,29.79,North,360,10.0,15.0,48,0.00,,BKN250,0.00,VWS V14.01,2013-05-01 02:59:00,
2013-04-30 22:00:00,78.2,56.9,29.79,North,360,7.0,17.0,48,0.00,,SCT250,0.00,VWS V14.01,2013-05-01 03:00:00,
2013-04-30 22:04:00,77.9,56.7,29.79,North,360,18.0,19.0,48,0.00,,SCT250,0.00,VWS V14.01,2013-05-01 03:04:00,
2013-04-30 22:05:00,78.0,56.7,29.79,North,360,9.0,16.0,48,0.00,,SCT250,0.00,VWS V14.01,2013-05-01 03:05:00,
2013-04-30 22:09:00,77.7,57.0,29.79,North,360,8.0,21.0,49,0.00,,SCT250,0.00,VWS V14.01,2013-05-01 03:09:00,
2013-04-30 22:10:00,77.7,57.0,29.79,North,360,4.0,21.0,49,0.00,,SCT250,0.00,VWS V14.01,2013-05-01 03:10:00,
2013-04-30 22:15:00,77.7,56.5,29.79,North,360,10.0,18.0,48,0.00,,SCT250,0.00,VWS V14.01,2013-05-01 03:15:00,
2013-04-30 22:20:00,77.6,56.4,29.79,North,360,9.0,21.0,48,0.00,,SCT250,0.00,VWS V14.01,2013-05-01 03:20:00,
2013-04-30 22:25:00,77.4,56.8,29.80,North,360,12.0,14.0,49,0.00,,SCT250,0.00,VWS V14.01,2013-05-01 03:25:00,
2013-04-30 22:30:00,77.3,56.7,29.80,North,360,7.0,19.0,49,0.00,,SCT250,0.00,VWS V14.01,2013-05-01 03:30:00,
2013-04-30 22:35:00,77.1,56.5,29.80,North,360,14.0,16.0,49,0.00,,SCT250,0.00,VWS V14.01,2013-05-01 03:35:00,
2013-04-30 22:40:00,76.9,56.3,29.80,South,169,6.0,18.0,49,0.00,,SCT250,0.00,VWS V14.01,2013-05-01 03:40:00,
2013-04-30 22:45:00,76.7,56.7,29.80,North,360,8.0,13.0,50,0.00,,SCT250,0.00,VWS V14.01,2013-05-01 03:45:00,
2013-04-30 22:50:00,76.7,56.1,29.80,North,360,7.0,22.0,49,0.00,,SCT250,0.00,VWS V14.01,2013-05-01 03:50:00,
2013-04-30 22:55:00,76.4,56.4,29.80,North,360,8.0,14.0,50,0.00,,SCT250,0.00,VWS V14.01,2013-05-01 03:55:00,
2013-04-30 23:00:00,76.3,56.3,29.80,North,360,8.0,14.0,50,0.00,,SCT250,0.00,VWS V14.01,2013-05-01 04:00:00,
2013-04-30 23:01:00,76.2,56.2,29.80,North,360,9.0,14.0,50,0.00,,SCT250,0.00,VWS V14.01,2013-05-01 04:01:00,
2013-04-30 23:02:00,76.2,56.2,29.80,North,360,10.0,14.0,50,0.00,,SCT250,0.00,VWS V14.01,2013-05-01 04:02:00,
2013-04-30 23:03:00,76.2,56.2,29.80,North,360,4.0,14.0,50,0.00,,SCT250,0.00,VWS V14.01,2013-05-01 04:03:00,
2013-04-30 23:05:00,76.2,56.2,29.81,North,360,13.0,17.0,50,0.00,,SCT250,0.00,VWS V14.01,2013-05-01 04:05:00,
2013-04-30 23:10:00,76.0,56.6,29.81,North,360,6.0,11.0,51,0.00,,SCT250,0.00,VWS V14.01,2013-05-01 04:10:00,
2013-04-30 23:15:00,75.7,56.3,29.81,North,360,6.0,12.0,51,0.00,,SCT250,0.00,VWS V14.01,2013-05-01 04:15:00,
2013-04-30 23:20:00,75.5,56.7,29.81,North,360,5.0,12.0,52,0.00,,SCT250,0.00,VWS V14.01,2013-05-01 04:20:00,
2013-04-30 23:25:00,75.2,56.4,29.81,North,360,6.0,13.0,52,0.00,,SCT250,0.00,VWS V14.01,2013-05-01 04:25:00,
2013-04-30 23:30:00,74.9,56.6,29.81,North,360,1.0,12.0,53,0.00,,SCT250,0.00,VWS V14.01,2013-05-01 04:30:00,
2013-04-30 23:35:00,74.7,57.0,29.82,North,360,4.0,11.0,54,0.00,,SCT250,0.00,VWS V14.01,2013-05-01 04:35:00,
2013-04-30 23:40:00,74.7,57.0,29.82,North,360,7.0,14.0,54,0.00,,SCT250,0.00,VWS V14.01,2013-05-01 04:40:00,
2013-04-30 23:41:00,74.7,57.0,29.82,North,360,5.0,14.0,54,0.00,,SCT250,0.00,VWS V14.01,2013-05-01 04:41:00,
2013-04-30 23:45:00,74.7,57.0,29.82,South,170,11.0,15.0,54,0.00,,SCT250,0.00,VWS V14.01,2013-05-01 04:45:00,
2013-04-30 23:46:00,74.6,56.9,29.82,North,360,9.0,15.0,54,0.00,,SCT250,0.00,VWS V14.01,2013-05-01 04:46:00,
2013-04-30 23:50:00,74.5,56.8,29.82,SW,218,9.0,15.0,54,0.00,,SCT250,0.00,VWS V14.01,2013-05-01 04:50:00,
2013-04-30 23:51:00,74.5,56.8,29.82,SSW,192,9.0,17.0,54,0.00,,SCT250,0.00,VWS V14.01,2013-05-01 04:51:00,
2013-04-30 23:55:00,74.5,56.8,29.82,North,360,6.0,17.0,54,0.00,,SCT250,0.00,VWS V14.01,2013-05-01 04:55:00,
2013-04-30 23:56:00,74.3,56.6,29.83,North,360,6.0,13.0,54,0.00,,SCT250,0.00,VWS V14.01,2013-05-01 04:56:00,